sensor_id;sensor_type;location;lat;lon;timestamp;temperature;humidity
7876;DHT22;69649;53.712;9.680;2023-12-20T00:02:00;4.60;82.20
7876;DHT22;69649;53.712;9.680;2023-12-20T00:04:45;4.60;82.00
7876;DHT22;69649;53.712;9.680;2023-12-20T00:07:11;4.50;82.00
7876;DHT22;69649;53.712;9.680;2023-12-20T00:09:37;4.50;82.40
7876;DHT22;69649;53.712;9.680;2023-12-20T00:12:03;4.50;82.60
7876;DHT22;69649;53.712;9.680;2023-12-20T00:14:29;4.50;82.70
7876;DHT22;69649;53.712;9.680;2023-12-20T00:16:55;4.40;82.60
7876;DHT22;69649;53.712;9.680;2023-12-20T00:19:21;4.50;82.80
7876;DHT22;69649;53.712;9.680;2023-12-20T00:21:46;4.50;82.60
7876;DHT22;69649;53.712;9.680;2023-12-20T00:24:12;4.50;82.70
7876;DHT22;69649;53.712;9.680;2023-12-20T00:26:38;4.50;82.90
7876;DHT22;69649;53.712;9.680;2023-12-20T00:29:04;4.50;82.80
7876;DHT22;69649;53.712;9.680;2023-12-20T00:31:29;4.50;82.90
7876;DHT22;69649;53.712;9.680;2023-12-20T00:33:55;4.50;82.80
7876;DHT22;69649;53.712;9.680;2023-12-20T00:36:21;4.50;82.90
7876;DHT22;69649;53.712;9.680;2023-12-20T00:38:47;4.60;82.90
7876;DHT22;69649;53.712;9.680;2023-12-20T00:41:13;4.50;82.80
7876;DHT22;69649;53.712;9.680;2023-12-20T00:43:39;4.60;82.70
7876;DHT22;69649;53.712;9.680;2023-12-20T00:46:05;4.60;82.70
7876;DHT22;69649;53.712;9.680;2023-12-20T00:48:31;4.60;82.80
7876;DHT22;69649;53.712;9.680;2023-12-20T00:50:57;4.70;82.70
7876;DHT22;69649;53.712;9.680;2023-12-20T00:53:23;4.60;82.50
7876;DHT22;69649;53.712;9.680;2023-12-20T00:55:48;4.50;82.60
7876;DHT22;69649;53.712;9.680;2023-12-20T00:58:15;4.50;82.60
7876;DHT22;69649;53.712;9.680;2023-12-20T01:00:41;4.50;82.50
7876;DHT22;69649;53.712;9.680;2023-12-20T01:03:08;4.50;82.50
7876;DHT22;69649;53.712;9.680;2023-12-20T01:05:34;4.50;82.40
7876;DHT22;69649;53.712;9.680;2023-12-20T01:07:59;4.50;82.70
7876;DHT22;69649;53.712;9.680;2023-12-20T01:10:25;4.50;82.70
7876;DHT22;69649;53.712;9.680;2023-12-20T01:12:53;4.50;82.40
7876;DHT22;69649;53.712;9.680;2023-12-20T01:15:19;4.50;82.40
7876;DHT22;69649;53.712;9.680;2023-12-20T01:17:45;4.40;82.50
7876;DHT22;69649;53.712;9.680;2023-12-20T01:20:11;4.40;82.70
7876;DHT22;69649;53.712;9.680;2023-12-20T01:22:36;4.40;82.60
7876;DHT22;69649;53.712;9.680;2023-12-20T01:25:02;4.40;82.60
7876;DHT22;69649;53.712;9.680;2023-12-20T01:27:28;4.50;82.50
7876;DHT22;69649;53.712;9.680;2023-12-20T01:29:54;4.50;82.40
7876;DHT22;69649;53.712;9.680;2023-12-20T01:32:20;4.50;82.40
7876;DHT22;69649;53.712;9.680;2023-12-20T01:34:46;4.50;82.60
7876;DHT22;69649;53.712;9.680;2023-12-20T01:37:11;4.50;82.70
7876;DHT22;69649;53.712;9.680;2023-12-20T01:39:37;4.50;82.80
7876;DHT22;69649;53.712;9.680;2023-12-20T01:42:03;4.50;82.70
7876;DHT22;69649;53.712;9.680;2023-12-20T01:44:29;4.50;82.70
7876;DHT22;69649;53.712;9.680;2023-12-20T01:46:55;4.50;82.70
7876;DHT22;69649;53.712;9.680;2023-12-20T01:49:21;4.50;82.90
7876;DHT22;69649;53.712;9.680;2023-12-20T01:51:47;4.50;82.70
7876;DHT22;69649;53.712;9.680;2023-12-20T01:54:13;4.50;82.70
7876;DHT22;69649;53.712;9.680;2023-12-20T01:56:39;4.50;82.70
7876;DHT22;69649;53.712;9.680;2023-12-20T01:59:06;4.50;82.70
7876;DHT22;69649;53.712;9.680;2023-12-20T02:01:33;4.50;82.70
7876;DHT22;69649;53.712;9.680;2023-12-20T02:03:59;4.60;82.70
7876;DHT22;69649;53.712;9.680;2023-12-20T02:06:31;4.50;82.60
7876;DHT22;69649;53.712;9.680;2023-12-20T02:08:58;4.50;82.80
7876;DHT22;69649;53.712;9.680;2023-12-20T02:11:25;4.60;82.70
7876;DHT22;69649;53.712;9.680;2023-12-20T02:13:52;4.50;82.80
7876;DHT22;69649;53.712;9.680;2023-12-20T02:16:18;4.70;82.80
7876;DHT22;69649;53.712;9.680;2023-12-20T02:18:44;4.70;82.60
7876;DHT22;69649;53.712;9.680;2023-12-20T02:21:10;4.70;82.60
7876;DHT22;69649;53.712;9.680;2023-12-20T02:23:36;4.70;82.70
7876;DHT22;69649;53.712;9.680;2023-12-20T02:26:03;4.70;82.70
7876;DHT22;69649;53.712;9.680;2023-12-20T02:28:30;4.80;82.80
7876;DHT22;69649;53.712;9.680;2023-12-20T02:30:57;4.70;82.80
7876;DHT22;69649;53.712;9.680;2023-12-20T02:33:23;4.70;82.70
7876;DHT22;69649;53.712;9.680;2023-12-20T02:35:48;4.70;82.80
7876;DHT22;69649;53.712;9.680;2023-12-20T02:38:14;4.70;83.00
7876;DHT22;69649;53.712;9.680;2023-12-20T02:40:40;4.70;82.80
7876;DHT22;69649;53.712;9.680;2023-12-20T02:43:05;4.70;82.70
7876;DHT22;69649;53.712;9.680;2023-12-20T02:45:31;4.80;82.60
7876;DHT22;69649;53.712;9.680;2023-12-20T02:47:57;4.90;82.40
7876;DHT22;69649;53.712;9.680;2023-12-20T02:50:22;4.80;82.30
7876;DHT22;69649;53.712;9.680;2023-12-20T02:52:48;4.80;82.30
7876;DHT22;69649;53.712;9.680;2023-12-20T02:55:14;4.90;82.40
7876;DHT22;69649;53.712;9.680;2023-12-20T02:57:40;4.90;82.30
7876;DHT22;69649;53.712;9.680;2023-12-20T03:00:09;4.70;82.40
7876;DHT22;69649;53.712;9.680;2023-12-20T03:02:36;4.70;82.50
7876;DHT22;69649;53.712;9.680;2023-12-20T03:05:03;4.70;82.70
7876;DHT22;69649;53.712;9.680;2023-12-20T03:07:28;4.70;82.70
7876;DHT22;69649;53.712;9.680;2023-12-20T03:09:54;4.70;82.70
7876;DHT22;69649;53.712;9.680;2023-12-20T03:12:20;4.70;82.70
7876;DHT22;69649;53.712;9.680;2023-12-20T03:14:46;4.70;82.70
7876;DHT22;69649;53.712;9.680;2023-12-20T03:17:11;4.70;82.60
7876;DHT22;69649;53.712;9.680;2023-12-20T03:19:37;4.80;82.40
7876;DHT22;69649;53.712;9.680;2023-12-20T03:22:03;4.90;82.10
7876;DHT22;69649;53.712;9.680;2023-12-20T03:24:29;4.80;82.10
7876;DHT22;69649;53.712;9.680;2023-12-20T03:26:54;4.90;82.10
7876;DHT22;69649;53.712;9.680;2023-12-20T03:29:20;4.80;82.20
7876;DHT22;69649;53.712;9.680;2023-12-20T03:31:46;4.80;82.40
7876;DHT22;69649;53.712;9.680;2023-12-20T03:34:11;4.80;82.20
7876;DHT22;69649;53.712;9.680;2023-12-20T03:36:37;4.80;82.10
7876;DHT22;69649;53.712;9.680;2023-12-20T03:39:03;4.90;82.20
7876;DHT22;69649;53.712;9.680;2023-12-20T03:41:28;4.90;81.90
7876;DHT22;69649;53.712;9.680;2023-12-20T03:43:54;4.90;82.20
7876;DHT22;69649;53.712;9.680;2023-12-20T03:46:20;4.80;82.20
7876;DHT22;69649;53.712;9.680;2023-12-20T03:48:46;4.70;82.40
7876;DHT22;69649;53.712;9.680;2023-12-20T03:51:11;4.90;82.20
7876;DHT22;69649;53.712;9.680;2023-12-20T03:53:37;4.90;81.90
7876;DHT22;69649;53.712;9.680;2023-12-20T03:56:03;4.80;81.90
7876;DHT22;69649;53.712;9.680;2023-12-20T03:58:29;4.90;81.90
7876;DHT22;69649;53.712;9.680;2023-12-20T04:00:55;4.80;82.20
7876;DHT22;69649;53.712;9.680;2023-12-20T04:03:20;4.90;82.20
7876;DHT22;69649;53.712;9.680;2023-12-20T04:05:46;4.90;82.20
7876;DHT22;69649;53.712;9.680;2023-12-20T04:08:12;4.90;82.30
7876;DHT22;69649;53.712;9.680;2023-12-20T04:10:37;4.90;82.50
7876;DHT22;69649;53.712;9.680;2023-12-20T04:13:04;4.90;82.40
7876;DHT22;69649;53.712;9.680;2023-12-20T04:15:30;4.90;82.20
7876;DHT22;69649;53.712;9.680;2023-12-20T04:17:56;5.00;82.10
7876;DHT22;69649;53.712;9.680;2023-12-20T04:20:21;5.00;82.20
7876;DHT22;69649;53.712;9.680;2023-12-20T04:23:07;5.00;81.90
7876;DHT22;69649;53.712;9.680;2023-12-20T04:25:32;5.00;81.70
7876;DHT22;69649;53.712;9.680;2023-12-20T04:27:58;5.00;81.70
7876;DHT22;69649;53.712;9.680;2023-12-20T04:30:24;5.00;81.60
7876;DHT22;69649;53.712;9.680;2023-12-20T04:32:50;5.00;81.40
7876;DHT22;69649;53.712;9.680;2023-12-20T04:35:15;5.00;81.50
7876;DHT22;69649;53.712;9.680;2023-12-20T04:37:41;5.00;81.60
7876;DHT22;69649;53.712;9.680;2023-12-20T04:40:07;5.00;81.50
7876;DHT22;69649;53.712;9.680;2023-12-20T04:42:33;5.00;81.50
7876;DHT22;69649;53.712;9.680;2023-12-20T04:44:59;5.00;81.30
7876;DHT22;69649;53.712;9.680;2023-12-20T04:47:25;5.00;81.20
7876;DHT22;69649;53.712;9.680;2023-12-20T04:49:50;5.10;81.00
7876;DHT22;69649;53.712;9.680;2023-12-20T04:52:16;5.00;81.20
7876;DHT22;69649;53.712;9.680;2023-12-20T04:54:42;5.10;81.00
7876;DHT22;69649;53.712;9.680;2023-12-20T04:57:08;5.10;81.00
7876;DHT22;69649;53.712;9.680;2023-12-20T04:59:33;5.10;80.90
7876;DHT22;69649;53.712;9.680;2023-12-20T05:01:59;5.10;80.90
7876;DHT22;69649;53.712;9.680;2023-12-20T05:04:25;5.10;80.90
7876;DHT22;69649;53.712;9.680;2023-12-20T05:06:50;5.10;81.00
7876;DHT22;69649;53.712;9.680;2023-12-20T05:09:16;5.10;80.90
7876;DHT22;69649;53.712;9.680;2023-12-20T05:11:43;5.10;80.90
7876;DHT22;69649;53.712;9.680;2023-12-20T05:14:08;5.10;81.00
7876;DHT22;69649;53.712;9.680;2023-12-20T05:16:34;5.10;80.80
7876;DHT22;69649;53.712;9.680;2023-12-20T05:19:00;5.10;80.90
7876;DHT22;69649;53.712;9.680;2023-12-20T05:21:27;5.10;81.30
7876;DHT22;69649;53.712;9.680;2023-12-20T05:23:53;5.10;81.90
7876;DHT22;69649;53.712;9.680;2023-12-20T05:26:19;5.10;82.20
7876;DHT22;69649;53.712;9.680;2023-12-20T05:28:44;5.00;82.50
7876;DHT22;69649;53.712;9.680;2023-12-20T05:31:10;5.10;82.60
7876;DHT22;69649;53.712;9.680;2023-12-20T05:33:36;5.10;82.60
7876;DHT22;69649;53.712;9.680;2023-12-20T05:36:03;5.00;83.00
7876;DHT22;69649;53.712;9.680;2023-12-20T05:38:29;5.00;83.10
7876;DHT22;69649;53.712;9.680;2023-12-20T05:41:15;5.00;83.10
7876;DHT22;69649;53.712;9.680;2023-12-20T05:43:40;5.00;83.20
7876;DHT22;69649;53.712;9.680;2023-12-20T05:46:06;5.00;83.50
7876;DHT22;69649;53.712;9.680;2023-12-20T05:48:32;5.00;83.40
7876;DHT22;69649;53.712;9.680;2023-12-20T05:50:58;5.00;83.50
7876;DHT22;69649;53.712;9.680;2023-12-20T05:53:23;5.00;83.40
7876;DHT22;69649;53.712;9.680;2023-12-20T05:55:50;5.00;83.40
7876;DHT22;69649;53.712;9.680;2023-12-20T05:58:15;5.00;83.20
7876;DHT22;69649;53.712;9.680;2023-12-20T06:00:41;5.00;83.20
7876;DHT22;69649;53.712;9.680;2023-12-20T06:03:07;5.00;83.20
7876;DHT22;69649;53.712;9.680;2023-12-20T06:05:32;5.00;83.20
7876;DHT22;69649;53.712;9.680;2023-12-20T06:07:58;5.10;83.20
7876;DHT22;69649;53.712;9.680;2023-12-20T06:10:26;5.10;82.90
7876;DHT22;69649;53.712;9.680;2023-12-20T06:12:52;5.10;82.80
7876;DHT22;69649;53.712;9.680;2023-12-20T06:15:18;5.10;82.50
7876;DHT22;69649;53.712;9.680;2023-12-20T06:17:43;5.10;82.80
7876;DHT22;69649;53.712;9.680;2023-12-20T06:20:10;5.10;82.40
7876;DHT22;69649;53.712;9.680;2023-12-20T06:22:36;5.20;82.50
7876;DHT22;69649;53.712;9.680;2023-12-20T06:25:02;5.10;82.40
7876;DHT22;69649;53.712;9.680;2023-12-20T06:27:28;5.10;82.50
7876;DHT22;69649;53.712;9.680;2023-12-20T06:29:54;5.70;83.40
7876;DHT22;69649;53.712;9.680;2023-12-20T06:32:20;5.70;81.20
7876;DHT22;69649;53.712;9.680;2023-12-20T06:35:06;5.50;80.80
7876;DHT22;69649;53.712;9.680;2023-12-20T06:37:32;5.50;81.00
7876;DHT22;69649;53.712;9.680;2023-12-20T06:39:57;5.40;81.00
7876;DHT22;69649;53.712;9.680;2023-12-20T06:42:23;5.40;81.30
7876;DHT22;69649;53.712;9.680;2023-12-20T06:44:49;5.30;81.50
7876;DHT22;69649;53.712;9.680;2023-12-20T06:47:14;5.30;81.90
7876;DHT22;69649;53.712;9.680;2023-12-20T06:49:40;5.30;82.30
7876;DHT22;69649;53.712;9.680;2023-12-20T06:52:06;5.20;82.20
7876;DHT22;69649;53.712;9.680;2023-12-20T06:54:32;5.30;82.20
7876;DHT22;69649;53.712;9.680;2023-12-20T06:56:59;5.20;81.80
7876;DHT22;69649;53.712;9.680;2023-12-20T06:59:25;5.30;82.10
7876;DHT22;69649;53.712;9.680;2023-12-20T07:01:51;5.30;82.20
7876;DHT22;69649;53.712;9.680;2023-12-20T07:04:17;5.20;81.80
7876;DHT22;69649;53.712;9.680;2023-12-20T07:09:35;5.20;81.80
7876;DHT22;69649;53.712;9.680;2023-12-20T07:12:20;5.30;81.90
7876;DHT22;69649;53.712;9.680;2023-12-20T07:14:46;5.30;82.00
7876;DHT22;69649;53.712;9.680;2023-12-20T07:17:13;5.30;81.80
7876;DHT22;69649;53.712;9.680;2023-12-20T07:19:41;5.30;81.70
7876;DHT22;69649;53.712;9.680;2023-12-20T07:22:06;5.30;81.70
7876;DHT22;69649;53.712;9.680;2023-12-20T07:24:33;5.30;82.00
7876;DHT22;69649;53.712;9.680;2023-12-20T07:27:01;5.30;81.80
7876;DHT22;69649;53.712;9.680;2023-12-20T07:29:27;5.30;81.60
7876;DHT22;69649;53.712;9.680;2023-12-20T07:31:53;5.30;81.60
7876;DHT22;69649;53.712;9.680;2023-12-20T07:37:06;5.30;81.80
7876;DHT22;69649;53.712;9.680;2023-12-20T07:39:34;5.30;81.90
7876;DHT22;69649;53.712;9.680;2023-12-20T07:42:00;5.30;82.00
7876;DHT22;69649;53.712;9.680;2023-12-20T07:44:26;5.30;82.20
7876;DHT22;69649;53.712;9.680;2023-12-20T07:46:51;5.30;82.00
7876;DHT22;69649;53.712;9.680;2023-12-20T07:49:18;5.40;81.80
7876;DHT22;69649;53.712;9.680;2023-12-20T07:51:44;5.30;81.80
7876;DHT22;69649;53.712;9.680;2023-12-20T07:54:10;5.30;81.80
7876;DHT22;69649;53.712;9.680;2023-12-20T07:56:36;5.40;81.50
7876;DHT22;69649;53.712;9.680;2023-12-20T07:59:02;5.40;81.40
7876;DHT22;69649;53.712;9.680;2023-12-20T08:01:28;5.50;81.60
7876;DHT22;69649;53.712;9.680;2023-12-20T08:03:53;5.50;81.10
7876;DHT22;69649;53.712;9.680;2023-12-20T08:06:21;5.50;81.00
7876;DHT22;69649;53.712;9.680;2023-12-20T08:08:47;5.50;80.90
7876;DHT22;69649;53.712;9.680;2023-12-20T08:11:12;5.50;80.70
7876;DHT22;69649;53.712;9.680;2023-12-20T08:13:38;5.60;80.60
7876;DHT22;69649;53.712;9.680;2023-12-20T08:16:04;5.60;80.70
7876;DHT22;69649;53.712;9.680;2023-12-20T08:18:30;5.60;80.70
7876;DHT22;69649;53.712;9.680;2023-12-20T08:20:56;5.60;80.70
7876;DHT22;69649;53.712;9.680;2023-12-20T08:23:21;5.60;80.70
7876;DHT22;69649;53.712;9.680;2023-12-20T08:25:47;5.60;80.70
7876;DHT22;69649;53.712;9.680;2023-12-20T08:28:13;5.60;81.10
7876;DHT22;69649;53.712;9.680;2023-12-20T08:30:59;5.70;81.30
7876;DHT22;69649;53.712;9.680;2023-12-20T08:33:25;5.60;81.40
7876;DHT22;69649;53.712;9.680;2023-12-20T08:35:54;5.60;81.70
7876;DHT22;69649;53.712;9.680;2023-12-20T08:38:19;5.70;82.20
7876;DHT22;69649;53.712;9.680;2023-12-20T08:40:45;5.60;82.10
7876;DHT22;69649;53.712;9.680;2023-12-20T08:43:11;5.60;82.50
7876;DHT22;69649;53.712;9.680;2023-12-20T08:45:37;5.60;82.90
7876;DHT22;69649;53.712;9.680;2023-12-20T08:48:04;5.50;82.90
7876;DHT22;69649;53.712;9.680;2023-12-20T08:50:30;5.50;83.00
7876;DHT22;69649;53.712;9.680;2023-12-20T08:52:56;5.50;83.30
7876;DHT22;69649;53.712;9.680;2023-12-20T08:55:22;5.50;83.20
7876;DHT22;69649;53.712;9.680;2023-12-20T08:57:48;5.50;83.40
7876;DHT22;69649;53.712;9.680;2023-12-20T09:00:14;5.40;83.40
7876;DHT22;69649;53.712;9.680;2023-12-20T09:02:41;5.30;83.50
7876;DHT22;69649;53.712;9.680;2023-12-20T09:05:07;5.30;83.60
7876;DHT22;69649;53.712;9.680;2023-12-20T09:07:33;5.00;81.20
7876;DHT22;69649;53.712;9.680;2023-12-20T09:09:59;4.50;81.00
7876;DHT22;69649;53.712;9.680;2023-12-20T09:12:25;4.30;81.80
7876;DHT22;69649;53.712;9.680;2023-12-20T09:14:51;4.30;82.00
7876;DHT22;69649;53.712;9.680;2023-12-20T09:17:18;4.20;82.20
7876;DHT22;69649;53.712;9.680;2023-12-20T09:19:44;4.20;82.30
7876;DHT22;69649;53.712;9.680;2023-12-20T09:22:11;4.10;82.20
7876;DHT22;69649;53.712;9.680;2023-12-20T09:24:37;4.00;82.20
7876;DHT22;69649;53.712;9.680;2023-12-20T09:27:05;4.10;82.20
7876;DHT22;69649;53.712;9.680;2023-12-20T09:29:31;4.00;82.30
7876;DHT22;69649;53.712;9.680;2023-12-20T09:31:57;4.00;82.40
7876;DHT22;69649;53.712;9.680;2023-12-20T09:34:23;4.00;82.60
7876;DHT22;69649;53.712;9.680;2023-12-20T09:36:49;4.00;82.90
7876;DHT22;69649;53.712;9.680;2023-12-20T09:39:17;4.10;83.00
7876;DHT22;69649;53.712;9.680;2023-12-20T09:42:00;4.10;83.00
7876;DHT22;69649;53.712;9.680;2023-12-20T09:44:27;4.10;82.90
7876;DHT22;69649;53.712;9.680;2023-12-20T09:49:41;4.10;82.60
7876;DHT22;69649;53.712;9.680;2023-12-20T09:52:09;4.20;82.50
7876;DHT22;69649;53.712;9.680;2023-12-20T09:54:35;4.10;82.10
7876;DHT22;69649;53.712;9.680;2023-12-20T09:57:01;4.10;82.30
7876;DHT22;69649;53.712;9.680;2023-12-20T09:59:27;4.10;82.40
7876;DHT22;69649;53.712;9.680;2023-12-20T10:01:55;4.20;82.60
7876;DHT22;69649;53.712;9.680;2023-12-20T10:04:22;4.30;82.40
7876;DHT22;69649;53.712;9.680;2023-12-20T10:06:48;4.20;82.20
7876;DHT22;69649;53.712;9.680;2023-12-20T10:09:13;4.20;82.30
7876;DHT22;69649;53.712;9.680;2023-12-20T10:11:40;4.30;82.20
7876;DHT22;69649;53.712;9.680;2023-12-20T10:14:07;4.30;82.30
7876;DHT22;69649;53.712;9.680;2023-12-20T10:16:33;4.30;82.20
7876;DHT22;69649;53.712;9.680;2023-12-20T10:19:00;4.30;82.20
7876;DHT22;69649;53.712;9.680;2023-12-20T10:21:29;4.40;82.10
7876;DHT22;69649;53.712;9.680;2023-12-20T10:23:56;4.40;82.20
7876;DHT22;69649;53.712;9.680;2023-12-20T10:26:23;4.40;82.20
7876;DHT22;69649;53.712;9.680;2023-12-20T10:28:59;4.40;82.20
7876;DHT22;69649;53.712;9.680;2023-12-20T10:31:32;4.50;82.20
7876;DHT22;69649;53.712;9.680;2023-12-20T10:33:59;4.50;82.00
7876;DHT22;69649;53.712;9.680;2023-12-20T10:36:28;4.50;82.00
7876;DHT22;69649;53.712;9.680;2023-12-20T10:38:55;4.50;81.90
7876;DHT22;69649;53.712;9.680;2023-12-20T10:41:29;4.50;81.90
7876;DHT22;69649;53.712;9.680;2023-12-20T10:44:00;4.50;81.80
7876;DHT22;69649;53.712;9.680;2023-12-20T10:46:27;4.60;81.90
7876;DHT22;69649;53.712;9.680;2023-12-20T10:48:54;4.50;81.50
7876;DHT22;69649;53.712;9.680;2023-12-20T10:51:21;4.50;81.90
7876;DHT22;69649;53.712;9.680;2023-12-20T10:53:48;4.50;81.90
7876;DHT22;69649;53.712;9.680;2023-12-20T10:56:19;4.50;82.40
7876;DHT22;69649;53.712;9.680;2023-12-20T10:58:48;4.40;82.60
7876;DHT22;69649;53.712;9.680;2023-12-20T11:01:16;4.40;83.10
7876;DHT22;69649;53.712;9.680;2023-12-20T11:03:50;4.40;82.70
7876;DHT22;69649;53.712;9.680;2023-12-20T11:12:16;4.10;83.00
7876;DHT22;69649;53.712;9.680;2023-12-20T11:14:49;3.90;82.90
7876;DHT22;69649;53.712;9.680;2023-12-20T11:17:15;3.90;83.20
7876;DHT22;69649;53.712;9.680;2023-12-20T11:20:05;4.00;83.40
7876;DHT22;69649;53.712;9.680;2023-12-20T11:22:32;4.00;83.60
7876;DHT22;69649;53.712;9.680;2023-12-20T11:25:04;4.10;83.80
7876;DHT22;69649;53.712;9.680;2023-12-20T11:27:31;4.20;83.90
7876;DHT22;69649;53.712;9.680;2023-12-20T11:29:58;4.30;83.80
7876;DHT22;69649;53.712;9.680;2023-12-20T11:34:58;4.40;84.10
7876;DHT22;69649;53.712;9.680;2023-12-20T11:37:33;4.70;84.80
7876;DHT22;69649;53.712;9.680;2023-12-20T11:40:07;4.90;84.90
7876;DHT22;69649;53.712;9.680;2023-12-20T11:42:43;5.00;84.30
7876;DHT22;69649;53.712;9.680;2023-12-20T11:45:14;5.00;83.80
7876;DHT22;69649;53.712;9.680;2023-12-20T11:47:46;4.90;83.30
7876;DHT22;69649;53.712;9.680;2023-12-20T11:50:12;4.90;83.20
7876;DHT22;69649;53.712;9.680;2023-12-20T11:52:38;5.00;83.10
7876;DHT22;69649;53.712;9.680;2023-12-20T11:55:04;5.10;83.30
7876;DHT22;69649;53.712;9.680;2023-12-20T11:57:32;5.30;83.00
7876;DHT22;69649;53.712;9.680;2023-12-20T11:59:58;5.50;82.80
7876;DHT22;69649;53.712;9.680;2023-12-20T12:02:24;5.60;81.00
7876;DHT22;69649;53.712;9.680;2023-12-20T12:04:50;5.70;80.20
7876;DHT22;69649;53.712;9.680;2023-12-20T12:07:18;5.80;78.70
7876;DHT22;69649;53.712;9.680;2023-12-20T12:09:45;5.90;78.10
7876;DHT22;69649;53.712;9.680;2023-12-20T12:12:12;6.00;77.30
7876;DHT22;69649;53.712;9.680;2023-12-20T12:14:38;6.10;76.80
7876;DHT22;69649;53.712;9.680;2023-12-20T12:17:04;6.20;75.50
7876;DHT22;69649;53.712;9.680;2023-12-20T12:19:30;6.20;76.10
7876;DHT22;69649;53.712;9.680;2023-12-20T12:24:40;6.60;75.00
7876;DHT22;69649;53.712;9.680;2023-12-20T12:27:06;6.80;74.70
7876;DHT22;69649;53.712;9.680;2023-12-20T12:29:36;6.90;74.00
7876;DHT22;69649;53.712;9.680;2023-12-20T12:32:07;7.10;73.80
7876;DHT22;69649;53.712;9.680;2023-12-20T12:34:34;7.20;73.50
7876;DHT22;69649;53.712;9.680;2023-12-20T12:37:00;7.20;72.90
7876;DHT22;69649;53.712;9.680;2023-12-20T12:39:26;7.20;73.00
7876;DHT22;69649;53.712;9.680;2023-12-20T12:41:56;7.20;72.40
7876;DHT22;69649;53.712;9.680;2023-12-20T12:44:22;7.20;71.90
7876;DHT22;69649;53.712;9.680;2023-12-20T12:46:52;7.00;72.00
7876;DHT22;69649;53.712;9.680;2023-12-20T12:49:21;6.80;73.00
7876;DHT22;69649;53.712;9.680;2023-12-20T12:51:49;6.70;72.80
7876;DHT22;69649;53.712;9.680;2023-12-20T12:54:15;7.00;74.30
7876;DHT22;69649;53.712;9.680;2023-12-20T12:57:03;7.20;72.30
7876;DHT22;69649;53.712;9.680;2023-12-20T12:59:29;7.20;71.80
7876;DHT22;69649;53.712;9.680;2023-12-20T13:01:55;7.20;72.00
7876;DHT22;69649;53.712;9.680;2023-12-20T13:04:21;7.20;71.30
7876;DHT22;69649;53.712;9.680;2023-12-20T13:06:46;7.40;71.80
7876;DHT22;69649;53.712;9.680;2023-12-20T13:09:12;7.50;70.90
7876;DHT22;69649;53.712;9.680;2023-12-20T13:11:38;7.50;70.10
7876;DHT22;69649;53.712;9.680;2023-12-20T13:14:04;7.50;70.10
7876;DHT22;69649;53.712;9.680;2023-12-20T13:16:29;7.50;70.00
7876;DHT22;69649;53.712;9.680;2023-12-20T13:18:56;7.60;68.60
7876;DHT22;69649;53.712;9.680;2023-12-20T13:21:21;7.60;68.40
7876;DHT22;69649;53.712;9.680;2023-12-20T13:23:47;7.70;68.60
7876;DHT22;69649;53.712;9.680;2023-12-20T13:26:13;7.70;67.80
7876;DHT22;69649;53.712;9.680;2023-12-20T13:28:39;7.60;68.50
7876;DHT22;69649;53.712;9.680;2023-12-20T13:31:05;7.50;68.30
7876;DHT22;69649;53.712;9.680;2023-12-20T13:33:31;7.30;68.40
7876;DHT22;69649;53.712;9.680;2023-12-20T13:35:56;7.20;67.60
7876;DHT22;69649;53.712;9.680;2023-12-20T13:38:23;7.00;67.50
7876;DHT22;69649;53.712;9.680;2023-12-20T13:40:49;7.00;68.20
7876;DHT22;69649;53.712;9.680;2023-12-20T13:43:15;6.90;68.30
7876;DHT22;69649;53.712;9.680;2023-12-20T13:45:42;6.80;68.30
7876;DHT22;69649;53.712;9.680;2023-12-20T13:48:08;6.70;67.70
7876;DHT22;69649;53.712;9.680;2023-12-20T13:50:34;6.60;68.40
7876;DHT22;69649;53.712;9.680;2023-12-20T13:53:00;6.50;68.30
7876;DHT22;69649;53.712;9.680;2023-12-20T13:55:26;6.40;68.00
7876;DHT22;69649;53.712;9.680;2023-12-20T13:57:53;6.30;67.70
7876;DHT22;69649;53.712;9.680;2023-12-20T14:00:18;6.30;67.80
7876;DHT22;69649;53.712;9.680;2023-12-20T14:02:44;6.20;68.40
7876;DHT22;69649;53.712;9.680;2023-12-20T14:05:11;6.30;68.50
7876;DHT22;69649;53.712;9.680;2023-12-20T14:07:39;6.20;68.50
7876;DHT22;69649;53.712;9.680;2023-12-20T14:10:05;6.20;68.70
7876;DHT22;69649;53.712;9.680;2023-12-20T14:12:31;6.10;68.70
7876;DHT22;69649;53.712;9.680;2023-12-20T14:14:59;6.10;68.70
7876;DHT22;69649;53.712;9.680;2023-12-20T14:17:25;6.10;69.00
7876;DHT22;69649;53.712;9.680;2023-12-20T14:19:50;6.10;69.30
7876;DHT22;69649;53.712;9.680;2023-12-20T14:22:17;6.10;69.50
7876;DHT22;69649;53.712;9.680;2023-12-20T14:24:43;6.00;69.70
7876;DHT22;69649;53.712;9.680;2023-12-20T14:27:09;6.00;69.70
7876;DHT22;69649;53.712;9.680;2023-12-20T14:29:36;6.00;70.10
7876;DHT22;69649;53.712;9.680;2023-12-20T14:32:03;5.90;70.20
7876;DHT22;69649;53.712;9.680;2023-12-20T14:34:30;5.80;70.10
7876;DHT22;69649;53.712;9.680;2023-12-20T14:36:56;5.80;70.50
7876;DHT22;69649;53.712;9.680;2023-12-20T14:39:22;5.80;70.70
7876;DHT22;69649;53.712;9.680;2023-12-20T14:41:48;5.90;70.50
7876;DHT22;69649;53.712;9.680;2023-12-20T14:44:14;5.80;70.90
7876;DHT22;69649;53.712;9.680;2023-12-20T14:46:40;5.80;71.20
7876;DHT22;69649;53.712;9.680;2023-12-20T14:49:05;5.90;71.30
7876;DHT22;69649;53.712;9.680;2023-12-20T14:51:31;5.80;71.40
7876;DHT22;69649;53.712;9.680;2023-12-20T14:53:57;5.80;71.40
7876;DHT22;69649;53.712;9.680;2023-12-20T14:56:25;5.80;71.50
7876;DHT22;69649;53.712;9.680;2023-12-20T14:58:51;5.80;71.50
7876;DHT22;69649;53.712;9.680;2023-12-20T15:01:17;5.70;71.90
7876;DHT22;69649;53.712;9.680;2023-12-20T15:03:45;5.70;72.10
7876;DHT22;69649;53.712;9.680;2023-12-20T15:06:11;5.80;72.20
7876;DHT22;69649;53.712;9.680;2023-12-20T15:08:37;5.70;72.50
7876;DHT22;69649;53.712;9.680;2023-12-20T15:11:03;5.70;72.80
7876;DHT22;69649;53.712;9.680;2023-12-20T15:13:29;5.70;72.90
7876;DHT22;69649;53.712;9.680;2023-12-20T15:15:56;5.80;73.00
7876;DHT22;69649;53.712;9.680;2023-12-20T15:18:22;5.70;72.80
7876;DHT22;69649;53.712;9.680;2023-12-20T15:20:48;5.70;73.60
7876;DHT22;69649;53.712;9.680;2023-12-20T15:23:13;5.70;74.80
7876;DHT22;69649;53.712;9.680;2023-12-20T15:25:40;5.70;75.00
7876;DHT22;69649;53.712;9.680;2023-12-20T15:28:06;5.70;75.00
7876;DHT22;69649;53.712;9.680;2023-12-20T15:30:32;5.70;74.90
7876;DHT22;69649;53.712;9.680;2023-12-20T15:32:58;5.70;75.20
7876;DHT22;69649;53.712;9.680;2023-12-20T15:35:24;5.70;75.20
7876;DHT22;69649;53.712;9.680;2023-12-20T15:37:50;5.60;75.00
7876;DHT22;69649;53.712;9.680;2023-12-20T15:40:16;5.50;75.30
7876;DHT22;69649;53.712;9.680;2023-12-20T15:42:42;5.30;75.30
7876;DHT22;69649;53.712;9.680;2023-12-20T15:45:09;5.30;75.30
7876;DHT22;69649;53.712;9.680;2023-12-20T15:47:35;5.30;75.40
7876;DHT22;69649;53.712;9.680;2023-12-20T15:50:05;5.20;75.40
7876;DHT22;69649;53.712;9.680;2023-12-20T15:52:32;5.10;75.60
7876;DHT22;69649;53.712;9.680;2023-12-20T15:54:58;5.10;75.40
7876;DHT22;69649;53.712;9.680;2023-12-20T15:57:24;5.00;75.50
7876;DHT22;69649;53.712;9.680;2023-12-20T15:59:49;5.00;75.50
7876;DHT22;69649;53.712;9.680;2023-12-20T16:02:18;5.00;75.60
7876;DHT22;69649;53.712;9.680;2023-12-20T16:04:44;5.00;75.30
7876;DHT22;69649;53.712;9.680;2023-12-20T16:07:10;5.00;75.50
7876;DHT22;69649;53.712;9.680;2023-12-20T16:09:36;5.00;75.70
7876;DHT22;69649;53.712;9.680;2023-12-20T16:12:02;5.10;76.00
7876;DHT22;69649;53.712;9.680;2023-12-20T16:14:28;5.10;76.70
7876;DHT22;69649;53.712;9.680;2023-12-20T16:16:55;5.10;77.20
7876;DHT22;69649;53.712;9.680;2023-12-20T16:19:21;5.00;77.20